createdAt,value
2023-01-15T00:00:41.433Z,5.13
2023-01-15T00:03:08.909Z,5.11
2023-01-15T00:05:37.904Z,5.13
2023-01-15T00:08:05.603Z,5.20
2023-01-15T00:10:33.430Z,5.12
2023-01-15T00:13:00.850Z,5.26
2023-01-15T00:15:28.318Z,5.25
2023-01-15T00:17:55.765Z,5.15
2023-01-15T00:20:23.087Z,5.15
2023-01-15T00:22:50.843Z,5.24
2023-01-15T00:25:36.881Z,5.36
2023-01-15T00:28:04.368Z,5.45
2023-01-15T00:30:31.837Z,5.39
2023-01-15T00:33:00.139Z,5.36
2023-01-15T00:35:27.620Z,5.35
2023-01-15T00:37:54.984Z,5.49
2023-01-15T00:40:22.592Z,5.47
2023-01-15T00:42:54.073Z,5.53
2023-01-15T00:45:22.462Z,5.42
2023-01-15T00:47:50.797Z,5.40
2023-01-15T00:50:18.261Z,5.41
2023-01-15T00:52:45.722Z,5.31
2023-01-15T00:55:13.238Z,5.47
2023-01-15T00:57:41.603Z,5.60
2023-01-15T01:00:09.707Z,5.52
2023-01-15T01:02:37.168Z,5.43
2023-01-15T01:05:05.039Z,5.51
2023-01-15T01:07:32.438Z,5.55
2023-01-15T01:09:59.879Z,5.58
2023-01-15T01:12:27.312Z,5.55
2023-01-15T01:14:55.675Z,5.55
2023-01-15T01:17:23.110Z,5.45
2023-01-15T01:19:50.615Z,5.51
2023-01-15T01:22:18.015Z,5.58
2023-01-15T01:24:45.434Z,5.62
2023-01-15T01:27:12.858Z,5.62
2023-01-15T01:29:40.239Z,5.63
2023-01-15T01:32:07.783Z,5.56
2023-01-15T01:34:35.276Z,5.57
2023-01-15T01:37:02.828Z,5.47
2023-01-15T01:39:30.225Z,5.55
2023-01-15T01:41:57.608Z,5.48
2023-01-15T01:44:34.907Z,5.39
2023-01-15T01:47:09.792Z,5.26
2023-01-15T01:49:40.205Z,5.35
2023-01-15T01:52:20.110Z,5.28
2023-01-15T01:54:49.885Z,5.32
2023-01-15T01:57:19.806Z,5.27
2023-01-15T01:59:48.519Z,5.20
2023-01-15T02:02:21.828Z,5.28
2023-01-15T02:04:50.077Z,5.22
2023-01-15T02:07:17.941Z,5.28
2023-01-15T02:09:45.351Z,5.26
2023-01-15T02:12:19.759Z,5.26
2023-01-15T02:14:58.751Z,5.22
2023-01-15T02:17:33.278Z,5.24
2023-01-15T02:20:24.157Z,5.30
2023-01-15T02:23:15.879Z,5.33
2023-01-15T02:25:49.084Z,5.33
2023-01-15T02:28:18.083Z,5.39
2023-01-15T02:30:53.647Z,5.40
2023-01-15T02:33:32.742Z,5.35
2023-01-15T02:36:01.230Z,5.35
2023-01-15T02:38:46.377Z,5.35
2023-01-15T02:41:17.880Z,5.33
2023-01-15T02:43:54.234Z,5.36
2023-01-15T02:46:30.894Z,5.23
2023-01-15T02:49:00.482Z,5.31
2023-01-15T02:51:39.317Z,5.30
2023-01-15T02:54:12.241Z,5.35
2023-01-15T02:56:45.489Z,5.36
2023-01-15T02:59:24.952Z,5.39
2023-01-15T03:02:02.344Z,5.52
2023-01-15T03:04:38.645Z,5.55
2023-01-15T03:07:15.116Z,5.66
2023-01-15T03:09:44.279Z,5.54
2023-01-15T03:12:26.570Z,5.64
2023-01-15T03:15:08.964Z,5.60
2023-01-15T03:17:48.779Z,5.67
2023-01-15T03:20:21.091Z,5.63
2023-01-15T03:22:53.931Z,5.64
2023-01-15T03:25:23.794Z,5.65
2023-01-15T03:27:57.693Z,5.59
2023-01-15T03:30:26.252Z,5.68
2023-01-15T03:32:54.261Z,5.67
2023-01-15T03:35:40.311Z,5.72
2023-01-15T03:38:10.519Z,5.67
2023-01-15T03:40:48.518Z,5.62
2023-01-15T03:43:39.871Z,5.65
2023-01-15T03:46:26.717Z,5.68
2023-01-15T03:49:04.222Z,5.77
2023-01-15T03:52:00.729Z,5.72
2023-01-15T03:54:43.133Z,5.72
2023-01-15T03:57:33.755Z,5.73
2023-01-15T04:00:28.081Z,5.69
2023-01-15T04:03:01.636Z,5.72
2023-01-15T04:05:34.659Z,5.71
2023-01-15T04:08:03.878Z,5.86
2023-01-15T04:10:32.131Z,5.85
2023-01-15T04:13:01.651Z,5.90
2023-01-15T04:15:29.290Z,5.91
2023-01-15T04:17:56.812Z,5.94
2023-01-15T04:20:25.854Z,5.94
2023-01-15T04:22:53.310Z,5.91
2023-01-15T04:25:20.639Z,5.94
2023-01-15T04:27:50.585Z,5.99
2023-01-15T04:30:19.438Z,5.98
2023-01-15T04:32:50.642Z,6.02
2023-01-15T04:35:19.387Z,6.06
2023-01-15T04:37:47.055Z,6.02
2023-01-15T04:40:34.642Z,6.08
2023-01-15T04:43:20.580Z,6.05
2023-01-15T04:45:48.039Z,6.06
2023-01-15T04:48:15.522Z,6.02
2023-01-15T04:50:43.006Z,5.98
2023-01-15T04:53:10.712Z,6.00
2023-01-15T04:55:38.191Z,5.96
2023-01-15T04:58:05.641Z,6.00
2023-01-15T05:00:33.107Z,5.96
2023-01-15T05:03:00.466Z,6.06
2023-01-15T05:05:27.948Z,6.06
2023-01-15T05:07:55.580Z,6.02
2023-01-15T05:10:23.033Z,6.12
2023-01-15T05:12:50.521Z,6.06
2023-01-15T05:15:18.008Z,6.02
2023-01-15T05:17:45.458Z,6.07
2023-01-15T05:20:14.978Z,6.08
2023-01-15T05:22:42.338Z,6.00
2023-01-15T05:25:09.924Z,5.89
2023-01-15T05:27:37.357Z,6.02
2023-01-15T05:30:05.386Z,5.97
2023-01-15T05:32:33.197Z,6.07
2023-01-15T05:35:00.644Z,6.02
2023-01-15T05:37:30.400Z,6.06
2023-01-15T05:39:57.820Z,6.03
2023-01-15T05:42:25.245Z,6.16
2023-01-15T05:44:52.861Z,6.15
2023-01-15T05:47:20.262Z,6.14
2023-01-15T05:49:48.593Z,6.08
2023-01-15T05:52:16.222Z,6.05
2023-01-15T05:54:43.616Z,5.97
2023-01-15T05:57:13.202Z,5.92
2023-01-15T05:59:40.981Z,5.93
2023-01-15T06:02:08.540Z,5.96
2023-01-15T06:04:35.994Z,6.01
2023-01-15T06:07:04.342Z,6.00
2023-01-15T06:09:31.755Z,6.03
2023-01-15T06:11:59.174Z,6.00
2023-01-15T06:14:26.667Z,6.02
2023-01-15T06:16:54.123Z,6.07
2023-01-15T06:19:21.562Z,6.05
2023-01-15T06:21:49.251Z,6.09
2023-01-15T06:24:17.954Z,6.02
2023-01-15T06:26:45.781Z,6.00
2023-01-15T06:29:17.508Z,6.06
2023-01-15T06:31:45.008Z,6.09
2023-01-15T06:34:12.504Z,6.12
2023-01-15T06:36:39.979Z,6.07
2023-01-15T06:39:07.337Z,6.13
2023-01-15T06:41:53.155Z,6.18
2023-01-15T06:44:39.241Z,6.15
2023-01-15T06:47:21.261Z,6.14
2023-01-15T06:49:56.214Z,6.21
2023-01-15T06:52:25.935Z,6.23
2023-01-15T06:54:54.081Z,6.21
2023-01-15T06:57:21.895Z,6.30
2023-01-15T06:59:49.818Z,6.29
2023-01-15T07:02:18.371Z,6.22
2023-01-15T07:04:47.871Z,6.12
2023-01-15T07:07:17.108Z,6.09
2023-01-15T07:09:44.960Z,6.05
2023-01-15T07:12:12.358Z,6.06
2023-01-15T07:14:39.753Z,6.19
2023-01-15T07:17:07.294Z,6.16
2023-01-15T07:19:34.700Z,5.99
2023-01-15T07:22:02.063Z,5.88
2023-01-15T07:24:29.437Z,5.91
2023-01-15T07:26:56.843Z,6.22
2023-01-15T07:29:24.155Z,6.03
2023-01-15T07:31:51.836Z,6.13
2023-01-15T07:34:19.623Z,6.20
2023-01-15T07:36:47.091Z,6.07
2023-01-15T07:39:14.871Z,6.10
2023-01-15T07:42:00.815Z,6.20
2023-01-15T07:44:46.601Z,6.22
2023-01-15T07:47:43.834Z,6.35
2023-01-15T07:50:18.236Z,6.48
2023-01-15T07:52:46.521Z,6.55
2023-01-15T07:55:14.768Z,6.51
2023-01-15T07:57:42.997Z,6.49
2023-01-15T08:00:14.075Z,6.46
2023-01-15T08:02:41.774Z,6.48
2023-01-15T08:05:11.509Z,6.49
2023-01-15T08:07:40.829Z,6.53
2023-01-15T08:10:10.613Z,6.45
2023-01-15T08:12:57.778Z,6.57
2023-01-15T08:15:26.093Z,6.39
2023-01-15T08:17:53.912Z,6.45
2023-01-15T08:20:27.092Z,6.47
2023-01-15T08:22:54.873Z,6.54
2023-01-15T08:25:24.684Z,6.42
2023-01-15T08:27:53.224Z,6.45
2023-01-15T08:30:23.971Z,6.53
2023-01-15T08:32:51.917Z,6.50
2023-01-15T08:35:19.893Z,6.44
2023-01-15T08:37:47.573Z,6.35
2023-01-15T08:40:15.133Z,6.39
2023-01-15T08:42:42.702Z,6.44
2023-01-15T08:45:10.709Z,6.44
2023-01-15T08:47:38.313Z,6.38
2023-01-15T08:50:08.631Z,6.58
2023-01-15T08:52:38.613Z,6.52
2023-01-15T08:55:06.834Z,6.62
2023-01-15T08:57:34.427Z,6.48
2023-01-15T09:00:06.958Z,6.35
2023-01-15T09:02:34.628Z,6.23
2023-01-15T09:05:02.219Z,6.37
2023-01-15T09:07:29.594Z,6.42
2023-01-15T09:09:58.362Z,6.42
2023-01-15T09:12:27.402Z,6.41
2023-01-15T09:14:57.798Z,6.47
2023-01-15T09:17:29.521Z,6.45
2023-01-15T09:19:56.990Z,6.48
2023-01-15T09:22:25.358Z,6.48
2023-01-15T09:25:02.580Z,6.45
2023-01-15T09:27:30.596Z,6.63
2023-01-15T09:29:57.987Z,6.74
2023-01-15T09:32:25.479Z,6.78
2023-01-15T09:34:52.920Z,6.70
2023-01-15T09:37:20.519Z,6.86
2023-01-15T09:39:53.609Z,6.87
2023-01-15T09:42:37.103Z,6.86
2023-01-15T09:45:29.173Z,7.07
2023-01-15T09:48:20.112Z,7.08
2023-01-15T09:51:02.728Z,7.00
2023-01-15T09:53:54.524Z,7.04
2023-01-15T09:56:24.211Z,7.07
2023-01-15T09:58:52.608Z,7.08
2023-01-15T10:01:29.382Z,7.05
2023-01-15T10:04:07.437Z,7.05
2023-01-15T10:07:18.651Z,7.14
2023-01-15T10:09:51.438Z,7.01
2023-01-15T10:12:35.423Z,7.14
2023-01-15T10:15:13.412Z,7.14
2023-01-15T10:17:43.176Z,7.25
2023-01-15T10:20:27.768Z,7.33
2023-01-15T10:23:25.945Z,7.22
2023-01-15T10:26:16.607Z,7.00
2023-01-15T10:29:05.658Z,7.18
2023-01-15T10:31:51.681Z,7.07
2023-01-15T10:34:29.953Z,7.06
2023-01-15T10:37:12.099Z,6.91
2023-01-15T10:40:05.447Z,6.95
2023-01-15T10:42:48.697Z,7.05
2023-01-15T10:45:24.509Z,7.09
2023-01-15T10:48:00.186Z,7.05
2023-01-15T10:50:27.806Z,7.25
2023-01-15T10:53:09.179Z,7.17
2023-01-15T10:55:42.385Z,7.25
2023-01-15T10:58:34.125Z,7.26
2023-01-15T11:01:09.120Z,7.26
2023-01-15T11:03:39.557Z,7.34
2023-01-15T11:06:14.236Z,7.37
2023-01-15T11:11:56.895Z,7.32
2023-01-15T11:14:55.636Z,7.29
2023-01-15T11:17:44.967Z,7.34
2023-01-15T11:20:25.396Z,7.33
2023-01-15T11:22:52.975Z,7.32
2023-01-15T11:25:31.881Z,7.40
2023-01-15T11:28:05.153Z,7.38
2023-01-15T11:30:37.839Z,7.39
2023-01-15T11:33:20.751Z,7.38
2023-01-15T11:35:58.559Z,7.34
2023-01-15T11:38:31.685Z,7.43
2023-01-15T11:41:01.869Z,7.35
2023-01-15T11:43:49.822Z,7.39
2023-01-15T11:46:43.572Z,7.39
2023-01-15T11:49:29.913Z,7.37
2023-01-15T11:51:59.016Z,7.37
2023-01-15T11:54:27.387Z,7.36
2023-01-15T11:56:55.029Z,7.37
2023-01-15T11:59:23.088Z,7.38
2023-01-15T12:01:57.961Z,7.32
2023-01-15T12:05:02.317Z,7.24
2023-01-15T12:07:30.149Z,7.22
2023-01-15T12:10:42.439Z,7.21
2023-01-15T12:13:39.458Z,7.20
2023-01-15T12:16:16.013Z,7.28
2023-01-15T12:19:00.425Z,7.12
2023-01-15T12:21:30.527Z,7.15
2023-01-15T12:24:37.307Z,7.22
2023-01-15T12:27:20.031Z,7.07
2023-01-15T12:29:58.647Z,7.22
2023-01-15T12:32:37.246Z,7.24
2023-01-15T12:35:30.733Z,7.20
2023-01-15T12:38:23.043Z,7.07
2023-01-15T12:40:57.815Z,7.27
2023-01-15T12:43:55.266Z,7.20
2023-01-15T12:46:30.726Z,7.19
2023-01-15T12:49:24.303Z,7.10
2023-01-15T12:51:59.123Z,7.16
2023-01-15T12:54:35.803Z,7.12
2023-01-15T12:57:17.041Z,7.12
2023-01-15T13:00:01.025Z,7.10
2023-01-15T13:02:38.810Z,7.02
2023-01-15T13:05:17.628Z,7.01
2023-01-15T13:07:58.401Z,7.04
2023-01-15T13:10:27.995Z,7.10
2023-01-15T13:13:26.034Z,7.10
2023-01-15T13:16:08.513Z,7.01
2023-01-15T13:18:49.434Z,7.01
2023-01-15T13:21:20.267Z,6.98
2023-01-15T13:23:56.630Z,6.92
2023-01-15T13:26:42.202Z,6.93
2023-01-15T13:29:31.290Z,6.92
2023-01-15T13:32:29.230Z,6.99
2023-01-15T13:35:10.322Z,7.04
2023-01-15T13:37:46.072Z,7.04
2023-01-15T13:40:22.945Z,7.01
2023-01-15T13:42:52.460Z,7.16
2023-01-15T13:45:28.002Z,7.13
2023-01-15T13:48:24.090Z,7.09
2023-01-15T13:51:05.866Z,6.98
2023-01-15T13:53:36.024Z,7.12
2023-01-15T13:56:09.807Z,6.97
2023-01-15T13:58:53.568Z,7.02
2023-01-15T14:01:34.797Z,7.09
2023-01-15T14:04:18.054Z,7.10
2023-01-15T14:06:48.307Z,7.07
2023-01-15T14:09:18.749Z,7.09
2023-01-15T14:11:58.269Z,6.98
2023-01-15T14:14:28.282Z,6.98
2023-01-15T14:17:14.413Z,7.06
2023-01-15T14:19:53.135Z,7.01
2023-01-15T14:22:35.798Z,7.04
2023-01-15T14:25:27.310Z,6.97
2023-01-15T14:28:09.271Z,6.98
2023-01-15T14:31:01.631Z,7.07
2023-01-15T14:33:45.377Z,7.07
2023-01-15T14:36:21.032Z,7.12
2023-01-15T14:38:54.873Z,7.17
2023-01-15T14:41:32.325Z,7.19
2023-01-15T14:44:02.131Z,7.10
2023-01-15T14:46:37.349Z,6.94
2023-01-15T14:49:05.017Z,6.96
2023-01-15T14:51:46.156Z,6.87
2023-01-15T14:54:18.460Z,6.84
2023-01-15T14:56:55.235Z,6.94
2023-01-15T14:59:41.536Z,6.83
2023-01-15T15:02:20.719Z,6.96
2023-01-15T15:04:54.975Z,6.89
2023-01-15T15:07:24.611Z,6.99
2023-01-15T15:10:09.315Z,7.04
2023-01-15T15:12:55.917Z,7.10
2023-01-15T15:15:37.618Z,7.15
2023-01-15T15:18:24.887Z,7.15
2023-01-15T15:21:20.675Z,7.28
2023-01-15T15:23:58.933Z,7.21
2023-01-15T15:26:34.913Z,7.18
2023-01-15T15:29:03.696Z,7.19
2023-01-15T15:31:57.219Z,7.31
2023-01-15T15:34:38.160Z,7.25
2023-01-15T15:37:14.444Z,7.03
2023-01-15T15:39:53.682Z,7.17
2023-01-15T15:42:54.294Z,7.20
2023-01-15T15:45:49.221Z,7.16
2023-01-15T15:48:41.752Z,7.14
2023-01-15T15:51:32.950Z,7.13
2023-01-15T15:54:20.011Z,7.02
2023-01-15T15:56:57.592Z,7.11
2023-01-15T15:59:35.737Z,7.15
2023-01-15T16:02:21.910Z,7.16
2023-01-15T16:04:54.308Z,7.12
2023-01-15T16:07:34.723Z,7.09
2023-01-15T16:10:26.882Z,7.14
2023-01-15T16:12:58.849Z,7.19
2023-01-15T16:15:29.658Z,7.12
2023-01-15T16:18:02.871Z,7.03
2023-01-15T16:20:30.910Z,7.08
2023-01-15T16:23:04.834Z,7.03
2023-01-15T16:25:38.674Z,7.02
2023-01-15T16:28:06.150Z,6.92
2023-01-15T16:30:33.963Z,6.73
2023-01-15T16:33:05.824Z,6.72
2023-01-15T16:35:37.302Z,6.79
2023-01-15T16:38:05.778Z,6.77
2023-01-15T16:40:37.312Z,6.72
2023-01-15T16:43:07.489Z,6.74
2023-01-15T16:45:37.850Z,6.74
2023-01-15T16:48:38.636Z,6.70
2023-01-15T16:51:35.208Z,6.71
2023-01-15T16:54:06.497Z,6.72
2023-01-15T16:56:39.839Z,6.68
2023-01-15T16:59:32.027Z,6.57
2023-01-15T17:02:12.632Z,6.50
2023-01-15T17:04:45.055Z,6.46
2023-01-15T17:07:29.288Z,6.60
2023-01-15T17:10:00.424Z,6.67
2023-01-15T17:12:34.691Z,6.57
2023-01-15T17:15:14.150Z,6.64
2023-01-15T17:17:46.270Z,6.59
2023-01-15T17:20:14.966Z,6.49
2023-01-15T17:22:45.100Z,6.31
2023-01-15T17:25:27.585Z,6.44
2023-01-15T17:27:55.922Z,6.57
2023-01-15T17:30:31.154Z,6.67
2023-01-15T17:33:04.287Z,6.60
2023-01-15T17:35:37.286Z,6.68
2023-01-15T17:38:07.016Z,6.70
2023-01-15T17:40:34.662Z,6.74
2023-01-15T17:43:02.668Z,6.75
2023-01-15T17:45:32.587Z,6.73
2023-01-15T17:48:01.990Z,6.74
2023-01-15T17:50:29.598Z,6.75
2023-01-15T17:52:57.013Z,6.70
2023-01-15T17:55:43.203Z,6.75
2023-01-15T17:58:31.693Z,6.70
2023-01-15T18:01:19.127Z,6.59
2023-01-15T18:04:12.115Z,6.56
2023-01-15T18:06:43.450Z,6.56
2023-01-15T18:09:10.888Z,6.55
2023-01-15T18:11:38.265Z,6.52
2023-01-15T18:14:05.672Z,6.48
2023-01-15T18:16:33.203Z,6.47
2023-01-15T18:19:00.733Z,6.51
2023-01-15T18:21:28.577Z,6.41
2023-01-15T18:23:56.203Z,6.40
2023-01-15T18:26:23.550Z,6.33
2023-01-15T18:28:51.144Z,6.26
2023-01-15T18:31:18.511Z,6.33
2023-01-15T18:33:46.413Z,6.46
2023-01-15T18:36:14.986Z,6.45
2023-01-15T18:38:43.838Z,6.55
2023-01-15T18:41:38.603Z,6.51
2023-01-15T18:44:26.087Z,6.60
2023-01-15T18:46:57.272Z,6.59
2023-01-15T18:49:24.924Z,6.62
2023-01-15T18:52:11.229Z,6.65
2023-01-15T18:54:38.825Z,6.64
2023-01-15T18:57:06.222Z,6.59
2023-01-15T18:59:33.620Z,6.59
2023-01-15T19:02:02.438Z,6.54
2023-01-15T19:04:29.991Z,6.59
2023-01-15T19:06:57.370Z,6.62
2023-01-15T19:09:24.802Z,6.57
2023-01-15T19:11:52.623Z,6.56
2023-01-15T19:14:39.846Z,6.58
2023-01-15T19:17:32.330Z,6.44
2023-01-15T19:19:59.796Z,6.41
2023-01-15T19:22:47.540Z,6.41
2023-01-15T19:25:16.619Z,6.54
2023-01-15T19:27:43.974Z,6.53
2023-01-15T19:30:11.761Z,6.56
2023-01-15T19:32:39.300Z,6.41
2023-01-15T19:35:07.007Z,6.37
2023-01-15T19:37:39.913Z,6.44
2023-01-15T19:40:13.674Z,6.40
2023-01-15T19:43:00.431Z,6.29
2023-01-15T19:45:46.574Z,6.37
2023-01-15T19:48:35.025Z,6.39
2023-01-15T19:51:02.668Z,6.36
2023-01-15T19:53:30.389Z,6.39
2023-01-15T19:55:57.845Z,6.39
2023-01-15T19:58:25.334Z,6.34
2023-01-15T20:01:12.055Z,6.31
2023-01-15T20:03:39.457Z,6.35
2023-01-15T20:06:08.553Z,6.38
2023-01-15T20:08:36.575Z,6.41
2023-01-15T20:11:08.897Z,6.37
2023-01-15T20:13:55.408Z,6.34
2023-01-15T20:16:25.388Z,6.41
2023-01-15T20:18:56.828Z,6.46
2023-01-15T20:21:25.051Z,6.43
2023-01-15T20:23:52.620Z,6.41
2023-01-15T20:26:20.023Z,6.34
2023-01-15T20:28:48.145Z,6.43
2023-01-15T20:31:18.522Z,6.45
2023-01-15T20:33:47.121Z,6.56
2023-01-15T20:36:15.351Z,6.52
2023-01-15T20:38:42.815Z,6.47
2023-01-15T20:41:29.700Z,6.54
2023-01-15T20:44:15.617Z,6.58
2023-01-15T20:46:43.084Z,6.63
2023-01-15T20:49:27.432Z,6.61
2023-01-15T20:51:56.437Z,6.44
2023-01-15T20:54:25.876Z,6.50
2023-01-15T20:56:53.434Z,6.44
2023-01-15T20:59:21.034Z,6.42
2023-01-15T21:01:48.628Z,6.42
2023-01-15T21:04:16.172Z,6.40
2023-01-15T21:06:43.620Z,6.43
2023-01-15T21:09:11.153Z,6.54
2023-01-15T21:11:38.542Z,6.44
2023-01-15T21:14:06.016Z,6.27
2023-01-15T21:16:33.478Z,6.34
2023-01-15T21:19:01.411Z,6.27
2023-01-15T21:21:28.863Z,6.30
2023-01-15T21:23:59.267Z,6.37
2023-01-15T21:26:26.620Z,6.41
2023-01-15T21:28:55.160Z,6.46
2023-01-15T21:31:22.937Z,6.43
2023-01-15T21:33:53.503Z,6.42
2023-01-15T21:36:21.880Z,6.38
2023-01-15T21:38:54.405Z,6.36
2023-01-15T21:41:45.283Z,6.41
2023-01-15T21:44:37.626Z,6.54
2023-01-15T21:47:07.631Z,6.61
2023-01-15T21:49:35.242Z,6.54
2023-01-15T21:52:05.220Z,6.59
2023-01-15T21:54:32.901Z,6.56
2023-01-15T21:57:00.538Z,6.63
2023-01-15T21:59:28.162Z,6.63
2023-01-15T22:01:57.552Z,6.75
2023-01-15T22:04:26.497Z,6.80
2023-01-15T22:06:54.769Z,6.84
2023-01-15T22:09:22.932Z,6.80
2023-01-15T22:11:52.469Z,6.65
2023-01-15T22:14:24.475Z,6.69
2023-01-15T22:16:56.698Z,6.68
2023-01-15T22:19:26.681Z,6.65
2023-01-15T22:22:04.550Z,6.68
2023-01-15T22:24:33.430Z,6.67
2023-01-15T22:27:02.086Z,6.62
2023-01-15T22:29:33.787Z,6.60
2023-01-15T22:32:01.670Z,6.69
2023-01-15T22:34:29.130Z,6.62
2023-01-15T22:36:56.496Z,6.62
2023-01-15T22:39:26.072Z,6.48
2023-01-15T22:42:12.168Z,6.62
2023-01-15T22:44:39.852Z,6.59
2023-01-15T22:47:07.272Z,6.56
2023-01-15T22:49:34.631Z,6.50
2023-01-15T22:52:02.058Z,6.53
2023-01-15T22:54:29.392Z,6.46
2023-01-15T22:56:56.760Z,6.41
2023-01-15T22:59:24.624Z,6.41
2023-01-15T23:01:52.351Z,6.47
2023-01-15T23:04:24.457Z,6.33
2023-01-15T23:06:53.023Z,6.45
2023-01-15T23:09:22.718Z,6.41
2023-01-15T23:11:51.662Z,6.29
2023-01-15T23:14:20.152Z,6.30
2023-01-15T23:16:47.660Z,6.35
2023-01-15T23:19:15.120Z,6.40
2023-01-15T23:21:42.691Z,6.49
2023-01-15T23:24:11.334Z,6.48
2023-01-15T23:26:39.042Z,6.53
2023-01-15T23:29:06.889Z,6.54
2023-01-15T23:31:34.498Z,6.54
2023-01-15T23:34:02.002Z,6.65
2023-01-15T23:36:29.457Z,6.60
2023-01-15T23:38:56.795Z,6.64
2023-01-15T23:41:45.350Z,6.66
2023-01-15T23:44:36.649Z,6.55
2023-01-15T23:47:04.787Z,6.58
2023-01-15T23:49:32.172Z,6.52
2023-01-15T23:51:59.760Z,6.48
2023-01-15T23:54:28.999Z,6.46
2023-01-15T23:56:58.141Z,6.47
2023-01-15T23:59:25.855Z,6.37
